Last 24 Hours

Squaw-Siberia 8700'

Hourly Data | America/Los_Angeles
as of 8/12/20 2:13 PM PDT
Date & Time Temp (°F) RH (%) Dew Pt (°F) Wet Bulb (°F) Wind Dir (°) Wind Spd (mph) Wind Gust (mph) WindChill (°F) Daily Min Temp (°F) Daily Max Temp (°F)
8/12/20 - 1400 61.8 28 28.4 45.0 SSE | 164 0.0 0.1 61.2 50.7 63.3
8/12/20 - 1300 60.5 29 28.1 44.3 SSE | 164 0.0 0.1 59.4 50.7 60.8
8/12/20 - 1200 58.8 26 23.7 42.2 SSE | 165 0.0 0.1 58.0 50.7 59.7
8/12/20 - 1100 56.4 34 28.2 42.5 SSE | 165 0.0 0.1 56.1 50.7 57.7
8/12/20 - 1000 55.8 33 27.2 41.9 SSE | 165 0.0 0.1 54.8 50.7 56.2
8/12/20 - 0900 53.7 33 25.4 40.4 SSE | 165 0.0 0.1 53.1 50.7 53.8
8/12/20 - 0800 53.2 30 23.0 39.4 SSE | 165 0.0 0.1 52.6 50.7 53.7
8/12/20 - 0700 52.0 34 24.4 39.2 SSE | 165 0.0 0.1 51.9 50.7 53.5
8/12/20 - 0600 51.2 34 24.1 38.8 SSE | 164 0.0 0.1 51.6 50.7 53.5
8/12/20 - 0500 51.4 38 26.8 39.7 SSE | 164 0.0 0.1 51.9 51.1 53.5
8/12/20 - 0400 52.3 36 26.3 40.0 SSE | 164 0.0 0.1 52.3 51.7 53.5
8/12/20 - 0300 52.3 38 27.4 40.4 SSE | 164 0.0 0.1 52.4 51.8 53.5
8/12/20 - 0200 52.4 45 31.9 42.1 SSE | 164 0.0 0.1 52.5 52.1 53.5
8/12/20 - 0100 52.4 43 30.8 41.7 SSE | 163 0.0 0.1 52.9 52.3 53.5
8/12/20 - 0000 53.1 44 31.7 42.3 SSE | 164 0.0 0.1 52.9 52.6 66.9
8/11/20 - 2300 52.8 56 37.3 44.5 SSE | 163 0.0 0.1 53.1 52.7 66.9
8/11/20 - 2200 53.5 52 36.3 44.4 SSE | 163 0.0 0.1 53.5 53.1 66.9
8/11/20 - 2100 54.0 58 39.7 46.1 SSE | 164 0.0 0.1 55.0 53.9 66.9
8/11/20 - 2000 56.8 48 37.2 46.1 SSE | 164 0.0 0.1 59.1 56.3 66.9
8/11/20 - 1900 60.1 37 33.9 46.2 SSE | 164 0.0 0.1 61.1 56.3 66.9
8/11/20 - 1800 62.3 36 35.1 47.5 SSE | 164 0.0 0.1 63.1 56.3 66.9
8/11/20 - 1700 63.6 35 35.4 48.2 SSE | 164 0.0 0.1 64.1 56.3 66.9
8/11/20 - 1600 65.5 35 37.4 49.7 SSE | 164 0.0 0.1 64.5 56.3 66.9
8/11/20 - 1500 64.0 35 35.6 48.4 SSE | 164 0.0 0.1 64.0 56.3 66.9
8/11/20 - 1400 65.1 34 36.3 49.1 SSE | 165 0.0 0.1 64.8 56.3 66.9
Max 65.5 58 39.7 49.7 - 0.0 0.1 64.8 56.3 66.9
Avg 56.6 38 30.9 43.6 - 0.0 0.1 56.6 - -
Min 51.2 26 23.0 38.8 - 0.0 0.1 51.6 50.7 53.5